Time;durP1;ratioP1;P1;durP2;ratioP2;P2;SDS_P1;SDS_P2;PMS_P1;PMS_P2;Temp;Humidity;BMP_temperature;BMP_pressure;BME280_temperature;BME280_humidity;BME280_pressure;Samples;Min_cycle;Max_cycle;Signal;HPM_P1;HPM_P2
2022/07/23 00:01:29;;;;;;;0.60;0.50;;;;;;;23.01;74.98;95485.91;5135285;27;20518;-65
2022/07/23 00:03:59;;;;;;;0.50;0.30;;;;;;;23.73;73.57;95601.16;5135086;27;20419;-65
2022/07/23 00:06:27;;;;;;;0.97;0.80;;;;;;;23.26;78.20;95568.53;5134792;27;20502;-66
2022/07/23 00:08:55;;;;;;;0.40;0.30;;;;;;;23.47;76.69;95606.25;5134349;27;21039;-66
2022/07/23 00:11:24;;;;;;;0.60;0.60;;;;;;;23.46;77.78;95596.53;5134794;27;20508;-66
2022/07/23 00:13:54;;;;;;;0.40;0.27;;;;;;;23.45;81.00;95602.31;5135218;27;20859;-63
2022/07/23 00:16:23;;;;;;;0.40;0.40;;;;;;;23.47;79.74;95600.84;5134875;27;20839;-63
2022/07/23 00:18:51;;;;;;;0.47;0.33;;;;;;;23.46;79.51;95609.28;5135109;27;20506;-63
2022/07/23 00:21:21;;;;;;;0.90;0.63;;;;;;;23.43;80.06;95618.09;5134665;27;20466;-66
2022/07/23 00:23:49;;;;;;;0.57;0.50;;;;;;;23.42;79.46;95606.50;5134884;27;20509;-64
2022/07/23 00:26:18;;;;;;;0.50;0.40;;;;;;;23.39;81.14;95615.28;5134935;27;20442;-64
2022/07/23 00:28:46;;;;;;;0.63;0.50;;;;;;;23.38;80.95;95613.69;5134816;27;20462;-64
2022/07/23 00:31:15;;;;;;;0.40;0.30;;;;;;;23.34;79.95;95612.78;5134513;27;20462;-64
2022/07/23 00:33:43;;;;;;;0.50;0.40;;;;;;;23.30;79.29;95607.28;5134311;27;21138;-63
2022/07/23 00:36:12;;;;;;;0.40;0.33;;;;;;;23.28;80.23;95612.25;5134642;27;20454;-63
2022/07/23 00:38:42;;;;;;;0.40;0.30;;;;;;;23.23;81.24;95606.28;5134307;27;20466;-63
2022/07/23 00:41:10;;;;;;;0.40;0.20;;;;;;;23.23;78.96;95607.06;5134321;27;20476;-63
2022/07/23 00:43:38;;;;;;;0.40;0.30;;;;;;;23.10;80.01;95591.19;5134281;27;20494;-63
2022/07/23 00:46:07;;;;;;;0.50;0.30;;;;;;;23.11;81.33;95606.31;5134039;27;20511;-63
2022/07/23 00:48:35;;;;;;;0.50;0.37;;;;;;;23.14;81.01;95611.84;5133644;27;20426;-64
2022/07/23 00:51:06;;;;;;;0.40;0.20;;;;;;;22.21;81.44;95459.97;5132964;27;21042;-63
2022/07/23 00:53:35;;;;;;;0.70;0.30;;;;;;;23.07;79.77;95605.44;5133785;27;20989;-63
2022/07/23 00:56:06;;;;;;;0.50;0.30;;;;;;;22.91;82.99;95612.66;5133140;27;20953;-63
2022/07/23 00:58:36;;;;;;;0.63;0.63;;;;;;;22.73;82.32;95588.56;5134251;27;20542;-64
2022/07/23 01:01:04;;;;;;;0.50;0.30;;;;;;;22.86;81.43;95607.47;5134118;27;20517;-63
2022/07/23 01:03:33;;;;;;;0.40;0.30;;;;;;;22.86;82.42;95610.97;5133768;27;20517;-64
2022/07/23 01:06:01;;;;;;;0.87;0.67;;;;;;;22.68;83.94;95618.53;5133868;27;20781;-63
2022/07/23 01:08:30;;;;;;;16.73;0.83;;;;;;;22.77;83.53;95612.22;5133782;27;20423;-64
2022/07/23 01:10:59;;;;;;;0.40;0.30;;;;;;;22.88;82.14;95616.03;5133609;27;20517;-63
2022/07/23 01:13:29;;;;;;;0.40;0.40;;;;;;;22.72;85.39;95614.00;5133640;27;20860;-63
2022/07/23 01:15:57;;;;;;;0.40;0.20;;;;;;;22.75;83.98;95613.34;5133566;27;20883;-64
2022/07/23 01:18:25;;;;;;;0.53;0.40;;;;;;;22.73;83.93;95615.59;5133405;27;20553;-64
2022/07/23 01:20:54;;;;;;;0.60;0.40;;;;;;;22.68;81.41;95613.13;5133832;27;20592;-64
2022/07/23 01:23:24;;;;;;;0.40;0.20;;;;;;;22.71;81.84;95604.34;5133682;27;20502;-64
2022/07/23 01:25:54;;;;;;;0.50;0.40;;;;;;;22.72;84.51;95603.22;5133723;27;20431;-63
2022/07/23 01:28:22;;;;;;;0.57;0.40;;;;;;;22.73;84.25;95604.00;5133400;27;20509;-63
2022/07/23 01:30:51;;;;;;;0.40;0.27;;;;;;;22.47;83.58;95561.09;5133315;27;20458;-64
2022/07/23 01:33:19;;;;;;;0.40;0.30;;;;;;;22.78;80.76;95601.06;5133660;27;20501;-64
2022/07/23 01:35:48;;;;;;;0.57;0.30;;;;;;;22.66;81.26;95607.28;5133510;27;20463;-64
2022/07/23 01:38:16;;;;;;;0.50;0.30;;;;;;;22.69;83.49;95605.81;5132679;27;21018;-64
2022/07/23 01:40:46;;;;;;;0.50;0.30;;;;;;;22.62;83.72;95609.06;5133182;27;20522;-64
2022/07/23 01:43:21;;;;;;;0.60;0.30;;;;;;;22.30;86.52;95611.84;5133011;27;20474;-64
2022/07/23 01:45:52;;;;;;;0.53;0.53;;;;;;;22.34;85.57;95610.06;5133412;27;20446;-64
2022/07/23 01:48:21;;;;;;;0.40;0.30;;;;;;;22.40;86.56;95612.19;5133065;27;20513;-63
2022/07/23 01:50:49;;;;;;;0.50;0.30;;;;;;;22.36;82.04;95592.41;5133021;27;20430;-64
2022/07/23 01:53:18;;;;;;;0.40;0.30;;;;;;;22.52;83.20;95609.50;5132869;27;20497;-63
2022/07/23 01:55:48;;;;;;;0.83;0.50;;;;;;;22.50;82.31;95617.16;5132846;27;20492;-63
2022/07/23 01:58:16;;;;;;;0.57;0.43;;;;;;;22.46;83.16;95616.25;5132501;27;20470;-63
2022/07/23 02:00:44;;;;;;;0.60;0.53;;;;;;;22.42;84.70;95615.34;5133104;27;20457;-63
2022/07/23 02:03:13;;;;;;;0.40;0.30;;;;;;;22.11;86.10;95585.38;5132563;27;20523;-63
2022/07/23 02:05:41;;;;;;;0.40;0.20;;;;;;;22.35;89.60;95617.00;5133135;27;20454;-63
2022/07/23 02:08:10;;;;;;;0.77;0.40;;;;;;;22.30;88.42;95619.94;5132773;27;20484;-63
2022/07/23 02:10:38;;;;;;;0.40;0.20;;;;;;;22.27;87.83;95624.09;5132626;27;20518;-63
2022/07/23 02:13:08;;;;;;;1.10;1.07;;;;;;;22.24;86.87;95619.34;5132450;27;20501;-63
2022/07/23 02:15:36;;;;;;;10.83;2.20;;;;;;;22.25;87.45;95625.56;5132135;27;20526;-63
2022/07/23 02:18:05;;;;;;;0.50;0.30;;;;;;;22.25;90.08;95629.06;5131679;27;20509;-63
2022/07/23 02:20:34;;;;;;;0.50;0.30;;;;;;;22.26;88.27;95621.75;5132615;27;20922;-63
2022/07/23 02:23:02;;;;;;;0.50;0.43;;;;;;;22.30;86.46;95628.84;5132527;28;20537;-63
2022/07/23 02:25:31;;;;;;;0.40;0.30;;;;;;;22.14;87.17;95606.28;5132493;28;20866;-62
2022/07/23 02:27:59;;;;;;;0.40;0.30;;;;;;;22.27;85.26;95624.09;5132630;28;20451;-62
2022/07/23 02:30:29;;;;;;;0.53;0.30;;;;;;;22.28;85.33;95627.59;5131991;28;20422;-62
2022/07/23 02:32:58;;;;;;;0.40;0.30;;;;;;;22.25;87.77;95628.25;5132790;28;20419;-62
2022/07/23 02:35:26;;;;;;;0.50;0.40;;;;;;;22.21;90.44;95636.25;5132125;28;20985;-63
2022/07/23 02:37:55;;;;;;;0.40;0.30;;;;;;;22.21;90.31;95630.06;5132470;28;20439;-62
2022/07/23 02:40:23;;;;;;;0.43;0.30;;;;;;;22.16;89.55;95627.56;5132282;28;20462;-62
2022/07/23 02:42:51;;;;;;;0.47;0.30;;;;;;;22.13;89.41;95634.44;5132730;28;20455;-62
2022/07/23 02:45:20;;;;;;;0.40;0.27;;;;;;;22.10;90.06;95633.19;5132190;28;20458;-62
2022/07/23 02:47:50;;;;;;;0.50;0.37;;;;;;;22.09;88.51;95633.50;5132375;28;20433;-62
2022/07/23 02:50:18;;;;;;;0.40;0.30;;;;;;;22.09;87.08;95638.91;5131310;28;20470;-62
2022/07/23 02:52:46;;;;;;;0.50;0.30;;;;;;;21.09;88.53;95498.97;5131925;28;21011;-63
2022/07/23 02:55:15;;;;;;;0.50;0.30;;;;;;;22.02;88.47;95647.56;5131816;28;20498;-62
2022/07/23 02:57:43;;;;;;;0.50;0.30;;;;;;;21.99;87.15;95647.44;5131849;28;20450;-59
2022/07/23 03:00:13;;;;;;;0.50;0.40;;;;;;;21.86;100.00;95633.09;5131895;28;20529;-51
2022/07/23 03:02:41;;;;;;;0.77;0.77;;;;;;;22.04;100.00;95653.41;5131975;28;20465;-51
2022/07/23 03:05:11;;;;;;;0.50;0.50;;;;;;;22.17;100.00;95654.22;5132159;28;20558;-51
2022/07/23 03:07:39;;;;;;;0.47;0.33;;;;;;;22.28;100.00;95649.19;5131825;27;20463;-51
2022/07/23 03:10:08;;;;;;;0.40;0.20;;;;;;;22.10;100.00;95611.59;5135638;27;20882;-51
2022/07/23 03:12:37;;;;;;;0.50;0.30;;;;;;;22.44;100.00;95655.53;5135679;27;20419;-51
2022/07/23 03:15:06;;;;;;;0.40;0.30;;;;;;;22.47;100.00;95655.63;5135709;27;20477;-51
2022/07/23 03:17:35;;;;;;;0.50;0.40;;;;;;;22.59;100.00;95666.44;5135505;27;20502;-51
2022/07/23 03:20:04;;;;;;;0.40;0.30;;;;;;;22.67;100.00;95659.38;5135655;27;20422;-51
2022/07/23 03:22:34;;;;;;;0.40;0.20;;;;;;;22.61;100.00;95664.22;5135696;27;20479;-51
2022/07/23 03:25:02;;;;;;;0.50;0.30;;;;;;;22.53;100.00;95664.31;5135075;27;20505;-51
2022/07/23 03:27:31;;;;;;;0.40;0.30;;;;;;;22.50;98.67;95663.06;5135372;27;20440;-50
2022/07/23 03:30:01;;;;;;;0.40;0.27;;;;;;;22.44;99.35;95669.81;5135781;27;20497;-51
2022/07/23 03:32:29;;;;;;;0.40;0.30;;;;;;;22.35;99.34;95671.81;5135777;27;20483;-51
2022/07/23 03:34:58;;;;;;;0.50;0.40;;;;;;;22.35;99.63;95671.03;5134952;27;20525;-51
2022/07/23 03:37:28;;;;;;;0.40;0.30;;;;;;;22.33;98.64;95671.38;5135374;27;20425;-51
2022/07/23 03:39:58;;;;;;;1.23;0.60;;;;;;;22.28;98.13;95668.91;5135259;27;20466;-51
2022/07/23 03:42:26;;;;;;;0.40;0.23;;;;;;;22.29;97.25;95697.47;5135255;27;20511;-51
2022/07/23 03:44:55;;;;;;;0.50;0.30;;;;;;;22.29;94.31;95672.38;5135227;27;20494;-51
2022/07/23 03:47:23;;;;;;;0.50;0.50;;;;;;;22.28;100.00;95682.41;5135221;27;20506;-51
2022/07/23 03:49:51;;;;;;;0.50;0.30;;;;;;;22.32;96.36;95671.69;5135119;27;20431;-51
2022/07/23 03:52:20;;;;;;;0.43;0.30;;;;;;;22.33;97.61;95667.88;5135063;27;20515;-51
2022/07/23 03:54:49;;;;;;;3.37;0.33;;;;;;;22.01;97.54;95610.13;5134851;27;21011;-51
2022/07/23 03:57:18;;;;;;;0.53;0.53;;;;;;;22.37;97.21;95676.88;5134985;27;20475;-51
2022/07/23 03:59:47;;;;;;;0.40;0.30;;;;;;;22.45;97.84;95676.78;5134583;27;20517;-51
2022/07/23 04:02:15;;;;;;;0.47;0.27;;;;;;;22.50;98.10;95675.78;5134609;27;20924;-51
2022/07/23 04:04:44;;;;;;;0.40;0.20;;;;;;;22.52;96.78;95682.44;5134994;27;20467;-51
2022/07/23 04:07:12;;;;;;;0.50;0.30;;;;;;;22.42;97.92;95680.16;5134840;27;20468;-51
2022/07/23 04:09:41;;;;;;;3.93;0.63;;;;;;;22.52;96.41;95682.44;5134691;27;20489;-51
2022/07/23 04:12:13;;;;;;;0.50;0.30;;;;;;;22.61;94.93;95683.13;5134910;27;20427;-51
2022/07/23 04:14:43;;;;;;;0.40;0.20;;;;;;;22.74;90.20;95683.97;5134665;27;20431;-51
2022/07/23 04:17:12;;;;;;;0.50;0.30;;;;;;;22.75;93.86;95686.31;5134294;27;20570;-50
2022/07/23 04:19:43;;;;;;;0.40;0.30;;;;;;;22.77;92.79;95689.47;5134237;27;20523;-52
2022/07/23 04:22:12;;;;;;;2.20;0.30;;;;;;;22.86;95.11;95697.47;5134408;27;20458;-52
2022/07/23 04:24:40;;;;;;;0.50;0.40;;;;;;;22.26;93.62;95694.66;5134258;27;20549;-51
2022/07/23 04:27:08;;;;;;;0.50;0.40;;;;;;;22.22;100.00;95697.22;5134181;27;20466;-51
2022/07/23 04:29:37;;;;;;;0.70;0.70;;;;;;;22.13;100.00;95700.03;5134518;27;20434;-54
2022/07/23 04:32:07;;;;;;;0.63;0.40;;;;;;;21.75;100.00;95702.09;5134213;27;20430;-54
2022/07/23 04:34:35;;;;;;;0.60;0.60;;;;;;;21.22;100.00;95694.72;5134201;27;20856;-54
2022/07/23 04:37:03;;;;;;;0.50;0.40;;;;;;;21.16;100.00;95695.22;5133909;27;20423;-54
2022/07/23 04:39:32;;;;;;;0.70;0.47;;;;;;;21.40;100.00;95700.78;5134377;27;20506;-54
2022/07/23 04:42:00;;;;;;;0.40;0.30;;;;;;;21.83;100.00;95690.41;5134043;27;20463;-54
2022/07/23 04:44:29;;;;;;;1.10;0.87;;;;;;;22.01;100.00;95697.25;5134160;27;20527;-54
2022/07/23 04:46:57;;;;;;;0.40;0.40;;;;;;;22.36;100.00;95689.63;5134250;27;20431;-54
2022/07/23 04:49:27;;;;;;;0.50;0.50;;;;;;;22.45;100.00;95687.59;5134185;27;20465;-53
2022/07/23 04:51:55;;;;;;;2.33;2.07;;;;;;;22.65;100.00;95688.66;5133808;27;20859;-53
2022/07/23 04:54:24;;;;;;;0.50;0.30;;;;;;;22.87;100.00;95695.56;5134115;27;20465;-53
2022/07/23 04:56:52;;;;;;;0.50;0.30;;;;;;;22.63;99.18;95691.72;5133800;27;20427;-53
2022/07/23 04:59:22;;;;;;;0.50;0.40;;;;;;;22.55;97.88;95689.88;5133773;27;20477;-53
2022/07/23 05:01:50;;;;;;;0.40;0.40;;;;;;;22.41;100.00;95677.81;5133962;27;20465;-53
2022/07/23 05:04:19;;;;;;;0.50;0.40;;;;;;;22.68;100.00;95693.41;5133815;27;20470;-53
2022/07/23 05:06:49;;;;;;;2.10;0.37;;;;;;;23.02;96.72;95686.78;5133955;27;20907;-53
2022/07/23 05:09:17;;;;;;;1.60;0.30;;;;;;;22.96;90.34;95694.31;5133874;27;20498;-54
2022/07/23 05:11:45;;;;;;;0.50;0.40;;;;;;;22.69;93.07;95689.59;5133336;27;20514;-52
2022/07/23 05:14:14;;;;;;;0.50;0.40;;;;;;;23.04;97.19;95685.31;5133761;27;20438;-52
2022/07/23 05:16:42;;;;;;;0.60;0.60;;;;;;;23.13;96.64;95682.47;5133132;27;20509;-52
2022/07/23 05:19:10;;;;;;;5.63;1.03;;;;;;;22.73;96.49;95690.47;5133365;27;20477;-52
2022/07/23 05:21:39;;;;;;;0.40;0.40;;;;;;;22.46;97.11;95691.09;5133245;27;20517;-51
2022/07/23 05:24:09;;;;;;;1.23;0.40;;;;;;;22.76;100.00;95684.41;5133115;27;20426;-52
2022/07/23 05:26:37;;;;;;;0.93;0.80;;;;;;;22.81;98.45;95691.50;5133127;27;20526;-51
2022/07/23 05:29:06;;;;;;;0.50;0.40;;;;;;;23.33;97.04;95692.34;5133242;27;20451;-51
2022/07/23 05:31:35;;;;;;;0.53;0.53;;;;;;;23.17;97.88;95688.78;5132315;27;20471;-52
2022/07/23 05:34:03;;;;;;;1.33;0.60;;;;;;;23.26;98.70;95686.75;5133141;27;20451;-52
2022/07/23 05:36:32;;;;;;;0.50;0.40;;;;;;;23.38;100.00;95688.69;5133054;27;20434;-51
2022/07/23 05:39:01;;;;;;;1.70;0.90;;;;;;;23.50;100.00;95691.34;5132898;27;20479;-51
2022/07/23 05:41:31;;;;;;;0.83;0.83;;;;;;;22.77;100.00;95654.31;5132990;27;20434;-51
2022/07/23 05:43:59;;;;;;;0.50;0.50;;;;;;;23.19;100.00;95700.06;5132968;27;20427;-51
2022/07/23 05:46:28;;;;;;;0.50;0.43;;;;;;;23.41;99.64;95696.88;5132779;27;21051;-52
2022/07/23 05:48:56;;;;;;;1.77;0.70;;;;;;;23.29;98.57;95702.28;5133049;27;20436;-52
2022/07/23 05:51:26;;;;;;;0.70;0.70;;;;;;;23.22;98.88;95691.25;5132637;27;20518;-52
2022/07/23 05:53:55;;;;;;;0.70;0.60;;;;;;;23.73;95.78;95690.47;5132605;27;20509;-62
2022/07/23 05:56:23;;;;;;;0.50;0.40;;;;;;;24.37;89.10;95697.69;5132578;27;20465;-64
2022/07/23 05:58:53;;;;;;;0.60;0.40;;;;;;;24.59;86.09;95683.56;5132682;27;20422;-64
2022/07/23 06:01:21;;;;;;;0.90;0.30;;;;;;;25.05;83.93;95696.31;5132498;27;20936;-64
2022/07/23 06:03:49;;;;;;;0.50;0.30;;;;;;;25.16;80.22;95697.38;5132581;27;20458;-64
2022/07/23 06:06:18;;;;;;;1.77;0.93;;;;;;;25.01;80.59;95690.03;5132774;27;20596;-63
2022/07/23 06:08:46;;;;;;;0.60;0.60;;;;;;;25.06;80.66;95697.91;5132466;27;20434;-63
2022/07/23 06:11:15;;;;;;;0.40;0.30;;;;;;;25.35;82.12;95698.56;5132757;27;20427;-63
2022/07/23 06:13:43;;;;;;;0.63;0.63;;;;;;;25.30;77.96;95663.56;5132460;27;20514;-63
2022/07/23 06:16:13;;;;;;;13.23;1.50;;;;;;;25.13;80.04;95698.06;5132354;27;20461;-63
2022/07/23 06:18:41;;;;;;;0.50;0.50;;;;;;;25.41;77.16;95697.13;5132753;27;20450;-56
2022/07/23 06:21:10;;;;;;;0.67;0.60;;;;;;;24.70;76.80;95534.72;5132161;27;20438;-56
2022/07/23 06:23:58;;;;;;;0.60;0.60;;;;;;;26.01;71.68;95684.88;5132226;28;20446;-56
2022/07/23 06:26:28;;;;;;;1.57;0.90;;;;;;;26.43;70.51;95740.06;5132232;28;20472;-56
2022/07/23 06:29:05;;;;;;;0.40;0.33;;;;;;;26.03;71.95;95588.28;5132220;28;20446;-56
2022/07/23 06:31:40;;;;;;;0.77;0.50;;;;;;;26.89;68.83;95679.13;5132493;28;20436;-56
2022/07/23 06:34:09;;;;;;;1.00;0.90;;;;;;;25.97;68.77;95637.81;5132132;28;21033;-56
2022/07/23 06:36:37;;;;;;;0.90;0.90;;;;;;;26.23;67.53;95676.78;5132407;28;20924;-56
2022/07/23 06:39:05;;;;;;;0.50;0.50;;;;;;;26.64;66.15;95680.59;5132067;28;20426;-57
2022/07/23 06:41:37;;;;;;;0.73;0.73;;;;;;;27.10;65.14;95674.03;5132124;28;20438;-58
2022/07/23 06:44:15;;;;;;;0.50;0.47;;;;;;;26.85;67.15;95633.97;5133650;27;20431;-56
2022/07/23 06:46:45;;;;;;;0.50;0.40;;;;;;;27.49;63.20;95676.56;5135661;27;20493;-56
2022/07/23 06:49:14;;;;;;;0.50;0.40;;;;;;;27.30;58.77;95644.00;5135842;27;20429;-56
2022/07/23 06:51:42;;;;;;;1.07;1.07;;;;;;;27.26;58.46;95662.19;5135887;27;20430;-56
2022/07/23 06:54:11;;;;;;;0.50;0.50;;;;;;;27.67;56.03;95659.31;5136094;27;20940;-57
2022/07/23 06:56:39;;;;;;;0.80;0.70;;;;;;;27.86;53.57;95647.44;5135936;27;20457;-57
2022/07/23 06:59:08;;;;;;;1.37;0.50;;;;;;;27.27;52.01;95558.41;5136003;27;20477;-57
2022/07/23 07:01:37;;;;;;;0.50;0.50;;;;;;;28.46;54.37;95655.53;5135915;27;20494;-58
2022/07/23 07:04:07;;;;;;;7.00;0.87;;;;;;;28.57;50.62;95646.28;5136275;27;20815;-58
2022/07/23 07:06:35;;;;;;;0.50;0.50;;;;;;;28.52;49.32;95630.25;5135865;27;20897;-58
2022/07/23 07:09:04;;;;;;;0.70;0.70;;;;;;;28.49;47.98;95638.44;5135042;27;20989;-56
2022/07/23 07:11:33;;;;;;;0.63;0.53;;;;;;;29.19;47.18;95638.22;5135936;27;20982;-56
2022/07/23 07:14:01;;;;;;;1.57;0.60;;;;;;;29.56;44.00;95647.84;5135857;27;20434;-55
2022/07/23 07:16:29;;;;;;;0.70;0.40;;;;;;;30.10;41.99;95641.44;5135871;27;20482;-56
2022/07/23 07:19:00;;;;;;;0.50;0.50;;;;;;;30.74;38.40;95636.88;5135793;27;20434;-56
2022/07/23 07:21:31;;;;;;;0.63;0.63;;;;;;;30.66;37.39;95638.03;5136121;27;20418;-55
2022/07/23 07:23:59;;;;;;;0.90;0.70;;;;;;;29.78;41.04;95640.53;5135877;27;20427;-55
2022/07/23 07:26:28;;;;;;;0.40;0.40;;;;;;;30.05;42.91;95636.34;5135878;27;21000;-55
2022/07/23 07:28:56;;;;;;;1.93;0.60;;;;;;;30.25;40.24;95636.78;5135629;27;20435;-55
2022/07/23 07:31:25;;;;;;;0.73;0.73;;;;;;;30.11;41.83;95632.06;5135502;27;20927;-56
2022/07/23 07:33:56;;;;;;;0.50;0.50;;;;;;;30.51;39.73;95630.22;5135552;27;20433;-56
2022/07/23 07:36:25;;;;;;;3.80;0.63;;;;;;;30.98;37.08;95623.59;5136002;27;20415;-57
2022/07/23 07:38:55;;;;;;;0.70;0.70;;;;;;;30.43;37.54;95625.91;5135458;27;20462;-57
2022/07/23 07:41:24;;;;;;;0.80;0.80;;;;;;;31.08;38.09;95612.66;5135853;27;20509;-57
2022/07/23 07:43:52;;;;;;;0.83;0.70;;;;;;;31.58;37.16;95615.28;5135749;27;20443;-57
2022/07/23 07:46:20;;;;;;;0.90;0.80;;;;;;;31.88;36.35;95607.31;5135201;27;20908;-57
2022/07/23 07:48:49;;;;;;;3.80;0.73;;;;;;;31.71;35.19;95602.72;5135353;27;20784;-57
2022/07/23 07:51:25;;;;;;;0.90;0.60;;;;;;;31.85;36.56;95605.41;5135336;27;20467;-57
2022/07/23 07:53:53;;;;;;;0.50;0.50;;;;;;;32.03;35.00;95586.91;5135538;27;20450;-57
2022/07/23 07:56:23;;;;;;;0.40;0.40;;;;;;;32.90;33.24;95592.19;5133361;27;20507;-57
2022/07/23 07:58:52;;;;;;;0.57;0.47;;;;;;;33.17;32.61;95593.13;5135271;27;20434;-57
2022/07/23 08:01:20;;;;;;;0.40;0.40;;;;;;;33.24;33.05;95591.09;5135056;27;20525;-57
2022/07/23 08:03:49;;;;;;;1.17;1.07;;;;;;;33.47;32.23;95578.69;5135179;27;20423;-57
2022/07/23 08:06:17;;;;;;;0.50;0.50;;;;;;;33.52;32.19;95581.00;5135217;27;20467;-56
2022/07/23 08:08:48;;;;;;;0.67;0.50;;;;;;;33.32;31.16;95582.78;5134958;27;20424;-56
2022/07/23 08:11:16;;;;;;;0.70;0.50;;;;;;;33.65;31.27;95579.31;5135195;27;20858;-56
2022/07/23 08:13:46;;;;;;;0.83;0.83;;;;;;;32.67;31.15;95537.09;5134737;27;20420;-56
2022/07/23 08:16:14;;;;;;;0.70;0.60;;;;;;;33.15;31.11;95573.53;5134260;27;20465;-56
2022/07/23 08:18:43;;;;;;;0.60;0.50;;;;;;;33.05;32.89;95566.97;5134773;27;20797;-56
2022/07/23 08:21:11;;;;;;;1.30;0.90;;;;;;;32.82;34.56;95568.72;5134741;27;20516;-56
2022/07/23 08:23:40;;;;;;;0.50;0.40;;;;;;;33.57;33.42;95564.88;5134398;27;20461;-56
2022/07/23 08:26:08;;;;;;;1.00;1.00;;;;;;;33.92;30.71;95554.59;5134954;27;20541;-56
2022/07/23 08:28:36;;;;;;;0.90;0.90;;;;;;;34.22;31.31;95558.13;5134469;27;20519;-56
2022/07/23 08:31:06;;;;;;;0.70;0.70;;;;;;;34.85;30.98;95559.09;5134486;27;20514;-56
2022/07/23 08:33:35;;;;;;;0.60;0.60;;;;;;;33.79;31.30;95554.38;5134443;27;20492;-55
2022/07/23 08:36:04;;;;;;;1.83;1.73;;;;;;;34.71;31.70;95558.56;5134422;27;20955;-55
2022/07/23 08:38:35;;;;;;;0.50;0.50;;;;;;;35.19;29.74;95547.09;5134287;27;20460;-55
2022/07/23 08:41:04;;;;;;;0.60;0.47;;;;;;;35.69;28.57;95542.97;5134285;27;20432;-54
2022/07/23 08:43:35;;;;;;;0.60;0.50;;;;;;;35.71;30.20;95545.28;5134236;27;20437;-55
2022/07/23 08:46:06;;;;;;;0.50;0.50;;;;;;;35.70;28.54;95541.75;5127775;27;21045;-55
2022/07/23 08:48:36;;;;;;;0.40;0.37;;;;;;;35.17;27.81;95450.31;5128744;27;20446;-55
2022/07/23 08:51:07;;;;;;;0.50;0.40;;;;;;;36.25;28.15;95535.47;5134211;27;20419;-55
2022/07/23 08:53:38;;;;;;;0.97;0.80;;;;;;;36.13;26.80;95533.34;5133921;27;20468;-55
2022/07/23 08:56:07;;;;;;;0.60;0.50;;;;;;;36.34;27.10;95534.84;5133828;27;20445;-55
2022/07/23 08:58:37;;;;;;;0.60;0.40;;;;;;;36.45;27.48;95523.56;5133757;27;20619;-56
2022/07/23 09:01:07;;;;;;;0.60;0.50;;;;;;;35.68;26.94;95494.53;5125045;27;20460;-56
2022/07/23 09:03:39;;;;;;;0.50;0.50;;;;;;;36.31;28.52;95527.41;5112681;28;20438;-55
2022/07/23 09:06:08;;;;;;;0.50;0.50;;;;;;;36.06;27.72;95496.84;5122099;27;20648;-55
2022/07/23 09:08:38;;;;;;;12.13;0.60;;;;;;;36.86;27.00;95518.19;5132686;27;20286;-56
2022/07/23 09:11:08;;;;;;;0.60;0.57;;;;;;;36.36;28.42;95520.63;5129240;27;20723;-56
2022/07/23 09:13:40;;;;;;;0.87;0.87;;;;;;;35.68;27.95;95402.72;5132287;27;20685;-56
2022/07/23 09:16:12;;;;;;;1.30;1.20;;;;;;;36.16;28.72;95515.94;5131203;27;20236;-55
2022/07/23 09:18:45;;;;;;;1.00;0.90;;;;;;;35.93;29.39;95502.25;5115081;27;20233;-56
2022/07/23 09:21:17;;;;;;;0.60;0.60;;;;;;;36.00;29.74;95509.63;5124858;27;20658;-55
2022/07/23 09:23:49;;;;;;;0.60;0.60;;;;;;;36.04;29.27;95511.09;5131206;27;20188;-60
2022/07/23 09:26:36;;;;;;;0.83;0.57;;;;;;;36.15;30.00;95503.34;5131461;27;20230;-59
2022/07/23 09:29:08;;;;;;;0.80;0.80;;;;;;;36.38;30.82;95494.13;5126302;27;20196;-60
2022/07/23 09:31:47;;;;;;;0.40;0.40;;;;;;;36.73;31.64;95487.75;5122479;27;20239;-61
2022/07/23 09:34:19;;;;;;;0.50;0.50;;;;;;;36.44;29.45;95491.63;5128745;27;20196;-61
2022/07/23 09:36:48;;;;;;;0.40;0.40;;;;;;;37.14;29.19;95483.53;5123934;27;20717;-61
2022/07/23 09:39:25;;;;;;;0.47;0.40;;;;;;;37.10;31.40;95480.84;5112428;28;20250;-61
2022/07/23 09:41:54;;;;;;;0.80;0.80;;;;;;;37.00;29.20;95479.16;5112233;28;20216;-60
2022/07/23 09:44:22;;;;;;;0.70;0.70;;;;;;;36.99;28.51;95479.59;5111242;28;20193;-59
2022/07/23 09:47:00;;;;;;;0.43;0.37;;;;;;;37.69;28.27;95474.06;5112413;28;20261;-61
2022/07/23 09:49:30;;;;;;;0.77;0.50;;;;;;;38.21;28.33;95466.13;5115015;27;20249;-60
2022/07/23 09:52:01;;;;;;;0.40;0.30;;;;;;;38.23;28.68;95468.47;5122767;27;20234;-59
2022/07/23 09:54:35;;;;;;;0.50;0.50;;;;;;;38.25;28.14;95466.78;5130623;27;20188;-58
2022/07/23 09:57:07;;;;;;;1.63;0.43;;;;;;;38.36;29.42;95460.91;5132259;27;20196;-59
2022/07/23 09:59:37;;;;;;;0.60;0.60;;;;;;;38.35;28.58;95451.06;5132951;27;20232;-60
2022/07/23 10:02:09;;;;;;;1.10;0.70;;;;;;;38.02;29.11;95451.31;5130833;27;20241;-59
2022/07/23 10:04:37;;;;;;;0.85;0.85;;;;;;;38.29;29.24;95480.50;5131654;27;20235;-60
2022/07/23 10:07:08;;;;;;;0.68;0.68;;;;;;;38.52;28.36;95452.47;5132465;27;20299;-61
2022/07/23 10:09:38;;;;;;;0.60;0.57;;;;;;;37.87;29.74;95402.38;5132857;27;20216;-60
2022/07/23 10:12:19;;;;;;;0.50;0.50;;;;;;;37.74;33.53;95443.06;5128544;27;20684;-60
2022/07/23 10:14:47;;;;;;;0.80;0.60;;;;;;;37.97;30.49;95442.78;5131004;27;20278;-61
2022/07/23 10:17:18;;;;;;;0.50;0.40;;;;;;;37.85;30.38;95438.03;5128839;27;20250;-60
2022/07/23 10:19:47;;;;;;;0.70;0.70;;;;;;;38.38;29.92;95436.34;5117701;28;20204;-62
2022/07/23 10:22:21;;;;;;;0.30;0.30;;;;;;;39.51;29.08;95427.56;5125442;27;20192;-64
2022/07/23 10:25:11;;;;;;;0.35;0.32;;;;;;;39.57;29.13;95428.50;5111418;28;20200;-65
2022/07/23 10:27:55;;;;;;;0.60;0.60;;;;;;;39.00;30.45;95415.19;5113960;28;20273;-54
2022/07/23 10:30:32;;;;;;;0.60;0.60;;;;;;;38.95;31.91;95424.06;5125537;27;20192;-54
2022/07/23 10:33:28;;;;;;;0.63;0.60;;;;;;;39.03;32.76;95381.78;5112801;28;20224;-54
2022/07/23 10:36:04;;;;;;;0.70;0.70;;;;;;;39.24;30.70;95383.03;5128222;27;20235;-55
2022/07/23 10:38:38;;;;;;;0.30;0.30;;;;;;;39.76;29.68;95404.41;5119445;27;20231;-55
2022/07/23 10:41:06;;;;;;;0.50;0.50;;;;;;;38.82;30.25;95398.41;5131957;27;20283;-55
2022/07/23 10:43:35;;;;;;;0.40;0.40;;;;;;;39.08;30.11;95399.84;5129793;27;20704;-55
2022/07/23 10:46:25;;;;;;;0.57;0.57;;;;;;;39.08;30.68;95388.75;5125559;28;20279;-55
2022/07/23 10:49:29;;;;;;;0.52;0.40;;;;;;;39.77;29.67;95389.31;5115128;28;20303;-55
2022/07/23 10:52:20;;;;;;;0.60;0.55;;;;;;;39.59;33.04;95378.13;5111636;28;20200;-55
2022/07/23 10:54:50;;;;;;;0.35;0.35;;;;;;;40.55;29.13;95371.03;5123503;27;20228;-54
2022/07/23 10:57:21;;;;;;;1.13;0.70;;;;;;;40.42;29.99;95364.03;5129799;27;20223;-55
2022/07/23 11:00:17;;;;;;;0.60;0.57;;;;;;;40.74;30.99;95359.88;5128967;27;20666;-54
2022/07/23 11:02:47;;;;;;;0.40;0.30;;;;;;;40.24;30.50;95361.25;5125871;27;20224;-56
2022/07/23 11:05:18;;;;;;;0.60;0.50;;;;;;;40.39;30.56;95351.06;5124330;28;20288;-55
2022/07/23 11:08:16;;;;;;;0.30;0.30;;;;;;;40.88;29.98;95360.09;5130405;28;20257;-56
2022/07/23 11:10:47;;;;;;;0.50;0.50;;;;;;;40.83;30.44;95346.78;5130805;28;20216;-56
2022/07/23 11:13:49;;;;;;;0.40;0.40;;;;;;;40.92;29.36;95321.75;5131833;28;20268;-55
2022/07/23 11:16:23;;;;;;;0.45;0.40;;;;;;;40.32;28.62;95346.59;5131612;28;20275;-56
2022/07/23 11:19:04;;;;;;;0.40;0.40;;;;;;;41.21;29.43;95339.94;5116877;27;20228;-56
2022/07/23 11:21:52;;;;;;;0.40;0.40;;;;;;;41.38;29.56;95332.78;5113611;27;20203;-56
2022/07/23 11:24:23;;;;;;;0.40;0.40;;;;;;;40.39;28.44;95317.72;5111306;28;20273;-57
2022/07/23 11:26:55;;;;;;;0.95;0.50;;;;;;;40.72;26.09;95334.56;5110961;28;20189;-57
2022/07/23 11:29:46;;;;;;;0.40;0.40;;;;;;;41.05;26.88;95288.97;5110963;28;20897;-57
2022/07/23 11:32:42;;;;;;;0.57;0.57;;;;;;;41.24;27.27;95320.28;5114307;28;20274;-56
2022/07/23 11:35:31;;;;;;;0.40;0.40;;;;;;;41.32;22.88;95313.16;5125622;27;20224;-56
2022/07/23 11:38:08;;;;;;;0.80;0.50;;;;;;;40.93;24.67;95323.31;5124782;27;20198;-56
2022/07/23 11:40:37;;;;;;;0.45;0.45;;;;;;;41.06;21.65;95314.78;5121793;27;20227;-56
2022/07/23 11:43:07;;;;;;;0.38;0.38;;;;;;;41.17;22.15;95312.25;5126354;27;20192;-56
2022/07/23 11:45:38;;;;;;;0.30;0.30;;;;;;;41.37;20.91;95309.00;5127919;27;20208;-55
2022/07/23 11:48:09;;;;;;;0.50;0.40;;;;;;;41.31;21.07;95308.88;5132418;27;20217;-55